Time;durP1;ratioP1;P1;durP2;ratioP2;P2;SDS_P1;SDS_P2;PMS_P1;PMS_P2;Temp;Humidity;BMP_temperature;BMP_pressure;BME280_temperature;BME280_humidity;BME280_pressure;Samples;Min_cycle;Max_cycle;Signal;HPM_P1;HPM_P2
2022/12/31 00:00:23;;;;;;;1.90;1.67;;;;;;;9.51;95.74;100149.75;4974409;29;20441;-80
2022/12/31 00:02:53;;;;;;;2.20;1.97;;;;;;;9.53;95.18;100148.53;4971350;29;20487;-78
2022/12/31 00:05:23;;;;;;;2.87;2.40;;;;;;;9.49;95.36;100141.88;4972481;29;20451;-80
2022/12/31 00:07:54;;;;;;;2.10;1.63;;;;;;;9.53;95.45;100153.09;4974045;29;20490;-78
2022/12/31 00:10:24;;;;;;;2.80;1.87;;;;;;;9.55;95.42;100151.81;4975606;29;20407;-77
2022/12/31 00:12:57;;;;;;;3.30;2.10;;;;;;;9.58;95.18;100156.00;4959889;29;20443;-78
2022/12/31 00:15:27;;;;;;;3.97;2.30;;;;;;;9.53;95.60;100158.50;4981656;28;20399;-79
2022/12/31 00:17:56;;;;;;;4.10;2.57;;;;;;;9.43;95.92;100171.63;4976894;28;20414;-79
2022/12/31 00:20:26;;;;;;;2.70;1.60;;;;;;;9.49;95.76;100168.88;4958290;29;20533;-79
2022/12/31 00:22:56;;;;;;;3.00;1.80;;;;;;;9.47;95.53;100162.88;4974184;28;20487;-80
2022/12/31 00:25:26;;;;;;;2.57;1.80;;;;;;;9.54;95.81;100170.94;4974682;29;20441;-78
2022/12/31 00:27:56;;;;;;;3.90;2.20;;;;;;;9.56;95.19;100180.50;4983876;28;20407;-78
2022/12/31 00:30:25;;;;;;;2.33;1.53;;;;;;;9.57;95.16;100176.75;4957813;29;20199;-78
2022/12/31 00:32:54;;;;;;;1.70;1.50;;;;;;;9.56;95.46;100174.25;4945008;29;20493;-77
2022/12/31 00:35:25;;;;;;;2.50;1.60;;;;;;;9.60;95.12;100184.44;4978523;28;20452;-79
2022/12/31 00:37:56;;;;;;;1.90;1.53;;;;;;;9.56;95.36;100175.09;4970258;28;20493;-77
2022/12/31 00:40:26;;;;;;;1.97;1.40;;;;;;;9.60;94.87;100181.72;4955616;29;20816;-79
2022/12/31 00:42:56;;;;;;;1.97;1.50;;;;;;;9.56;95.05;100168.84;4971922;28;20447;-78
2022/12/31 00:45:25;;;;;;;1.50;0.90;;;;;;;9.40;95.93;100172.84;4954341;29;20819;-80
2022/12/31 00:47:55;;;;;;;2.50;1.30;;;;;;;9.39;96.14;100162.28;4966738;29;20431;-78
2022/12/31 00:50:24;;;;;;;2.80;1.20;;;;;;;9.29;96.61;100162.72;4987769;28;20405;-77
2022/12/31 00:52:56;;;;;;;1.80;1.40;;;;;;;9.33;96.45;100158.56;4982042;28;20438;-77
2022/12/31 00:55:25;;;;;;;2.13;1.30;;;;;;;9.19;97.30;100175.00;4963683;29;20462;-79
2022/12/31 00:57:55;;;;;;;1.60;1.10;;;;;;;9.19;97.56;100172.28;4956178;29;20732;-79
2022/12/31 01:00:24;;;;;;;3.40;1.38;;;;;;;9.09;97.86;100186.22;4953181;29;20415;-81
2022/12/31 01:02:54;;;;;;;1.70;1.13;;;;;;;9.11;98.27;100198.44;4972415;28;20216;-80
2022/12/31 01:05:24;;;;;;;1.80;0.95;;;;;;;9.14;98.49;100206.16;4955522;29;20466;-78
2022/12/31 01:07:53;;;;;;;4.78;0.88;;;;;;;9.04;99.13;100203.03;4974384;29;20196;-78
2022/12/31 01:13:08;;;;;;;2.97;1.90;;;;;;;9.16;99.19;100212.16;4971296;28;20303;-79
2022/12/31 01:15:39;;;;;;;2.20;1.27;;;;;;;9.14;99.70;100216.13;4972454;29;20410;-80
2022/12/31 01:18:09;;;;;;;3.80;1.57;;;;;;;9.22;99.69;100215.06;4978060;28;20425;-78
2022/12/31 01:20:40;;;;;;;2.80;1.77;;;;;;;9.34;99.45;100224.19;4972519;29;20415;-77
2022/12/31 01:23:11;;;;;;;2.30;1.58;;;;;;;9.42;99.00;100219.38;4956666;29;20474;-78
2022/12/31 01:25:41;;;;;;;2.20;1.52;;;;;;;9.58;97.88;100226.22;4973763;29;20195;-77
2022/12/31 01:28:11;;;;;;;2.43;1.83;;;;;;;9.67;97.53;100214.13;4954911;29;20200;-77
2022/12/31 01:30:40;;;;;;;2.80;1.57;;;;;;;9.74;96.95;100224.91;4973711;29;20444;-79
2022/12/31 01:33:09;;;;;;;1.90;1.10;;;;;;;9.82;96.23;100216.56;4974678;28;20502;-80
2022/12/31 01:35:38;;;;;;;9.57;1.50;;;;;;;9.86;96.42;100217.81;4974922;28;20414;-78
2022/12/31 01:38:08;;;;;;;2.40;1.43;;;;;;;9.89;96.42;100237.13;4956825;29;20462;-79
2022/12/31 01:40:38;;;;;;;1.70;1.03;;;;;;;10.03;95.63;100240.59;4971262;29;20436;-81
2022/12/31 01:43:17;;;;;;;3.07;2.00;;;;;;;10.13;95.34;100237.44;4958481;28;20474;-79
2022/12/31 01:45:49;;;;;;;2.43;1.70;;;;;;;10.04;95.63;100232.28;4973974;28;20406;-82
2022/12/31 01:48:23;;;;;;;3.37;2.37;;;;;;;10.21;95.35;100237.22;4954372;29;20442;-80
2022/12/31 01:50:53;;;;;;;1.67;1.10;;;;;;;10.11;95.82;100243.06;4970994;29;21268;-77
2022/12/31 01:53:23;;;;;;;9.27;2.13;;;;;;;10.19;95.89;100242.00;4969893;28;20463;-78
2022/12/31 01:55:58;;;;;;;5.93;1.30;;;;;;;10.32;95.44;100252.75;4970499;29;20530;-77
2022/12/31 01:58:34;;;;;;;3.27;1.57;;;;;;;10.20;95.90;100240.97;4973906;28;20451;-80
2022/12/31 02:01:05;;;;;;;5.53;1.20;;;;;;;10.38;95.39;100238.38;4974593;28;20401;-78
2022/12/31 02:03:35;;;;;;;2.87;1.07;;;;;;;10.39;95.27;100240.03;4977483;28;20426;-77
2022/12/31 02:06:09;;;;;;;2.50;1.30;;;;;;;10.27;96.04;100248.00;4978664;28;20398;-76
2022/12/31 02:08:39;;;;;;;5.13;1.20;;;;;;;10.36;96.22;100251.31;4978782;28;20583;-76
2022/12/31 02:11:23;;;;;;;2.90;0.80;;;;;;;10.51;95.91;100259.09;4978355;28;20426;-77
2022/12/31 02:13:57;;;;;;;1.97;0.83;;;;;;;10.51;95.65;100249.09;4973628;28;20406;-78
2022/12/31 02:16:34;;;;;;;8.10;1.13;;;;;;;10.63;95.81;100247.38;4977637;28;20440;-77
2022/12/31 02:19:22;;;;;;;2.60;1.10;;;;;;;10.69;95.68;100256.50;4961391;29;20398;-81
2022/12/31 02:22:00;;;;;;;2.83;1.50;;;;;;;10.79;95.26;100252.28;4969101;28;20469;-81
2022/12/31 02:24:56;;;;;;;1.70;0.97;;;;;;;10.78;95.87;100256.03;4987347;28;20410;-77
2022/12/31 02:27:41;;;;;;;2.10;0.97;;;;;;;10.81;95.50;100254.75;4982796;28;20435;-79
2022/12/31 02:30:15;;;;;;;1.00;0.67;;;;;;;10.77;96.04;100251.66;4970287;29;20443;-78
2022/12/31 02:32:59;;;;;;;1.93;0.90;;;;;;;10.83;95.69;100249.97;4955218;29;20512;-78
2022/12/31 02:35:33;;;;;;;1.67;1.03;;;;;;;10.87;95.35;100249.28;4955923;29;20426;-78
2022/12/31 02:38:07;;;;;;;1.00;0.70;;;;;;;10.85;95.50;100251.38;4975757;28;20402;-78
2022/12/31 02:40:38;;;;;;;1.10;0.80;;;;;;;10.87;95.25;100240.34;4961065;29;20420;-78
2022/12/31 02:43:07;;;;;;;1.00;0.70;;;;;;;10.81;95.90;100228.50;4982489;28;20440;-76
2022/12/31 02:45:41;;;;;;;1.40;0.73;;;;;;;10.85;95.21;100245.97;4996483;28;20401;-79
2022/12/31 02:48:33;;;;;;;1.30;0.80;;;;;;;10.90;95.07;100239.91;4960373;29;20433;-78
2022/12/31 02:51:17;;;;;;;3.23;1.23;;;;;;;10.86;95.16;100236.81;4957062;29;20444;-79
2022/12/31 02:54:08;;;;;;;5.20;2.07;;;;;;;10.89;95.17;100240.97;4975909;28;20461;-78
2022/12/31 02:56:45;;;;;;;2.03;1.20;;;;;;;10.84;95.60;100238.88;4977822;28;20439;-79
2022/12/31 03:02:14;;;;;;;1.83;0.83;;;;;;;10.80;96.05;100243.09;4966729;28;20471;-81
2022/12/31 03:04:46;;;;;;;0.90;0.60;;;;;;;10.96;95.32;100232.78;4974618;28;20414;-78
2022/12/31 03:07:20;;;;;;;1.43;0.83;;;;;;;10.97;95.09;100231.72;4967532;28;20457;-80
2022/12/31 03:09:49;;;;;;;1.00;0.60;;;;;;;10.90;95.64;100215.53;4965404;29;20422;-80
2022/12/31 03:15:18;;;;;;;1.00;0.67;;;;;;;10.86;95.57;100223.28;4960678;28;20453;-76
2022/12/31 03:17:58;;;;;;;2.03;1.43;;;;;;;10.90;95.84;100229.91;4961140;29;20423;-78
2022/12/31 03:23:21;;;;;;;1.60;1.00;;;;;;;11.07;94.90;100234.78;4971323;28;20702;-80
2022/12/31 03:25:49;;;;;;;2.87;1.40;;;;;;;10.98;95.39;100225.28;4972628;29;20410;-80
2022/12/31 03:28:20;;;;;;;1.30;1.03;;;;;;;11.00;95.43;100229.41;4970933;29;20406;-79
2022/12/31 03:30:52;;;;;;;1.10;0.70;;;;;;;10.96;96.35;100220.06;4971536;29;20411;-81
2022/12/31 03:33:23;;;;;;;1.20;0.80;;;;;;;11.05;95.42;100217.91;4968139;28;20453;-80
2022/12/31 03:35:53;;;;;;;1.00;0.60;;;;;;;10.96;95.75;100227.34;4970084;29;20431;-78
2022/12/31 03:38:22;;;;;;;0.90;0.60;;;;;;;11.01;96.11;100225.66;4950903;29;20422;-80
2022/12/31 03:40:53;;;;;;;1.70;0.80;;;;;;;11.04;95.78;100232.50;4968846;29;20394;-80
2022/12/31 03:43:22;;;;;;;1.80;0.97;;;;;;;10.96;95.66;100235.47;4968446;29;20427;-79
2022/12/31 03:45:53;;;;;;;1.30;0.97;;;;;;;10.86;96.47;100227.84;4967446;29;20430;-80
2022/12/31 03:48:24;;;;;;;1.20;0.90;;;;;;;10.92;95.86;100218.03;4978556;28;20424;-80
2022/12/31 03:50:53;;;;;;;1.93;1.00;;;;;;;10.83;96.39;100203.94;4970760;28;20432;-76
2022/12/31 03:53:22;;;;;;;1.30;1.00;;;;;;;10.96;95.67;100208.41;4956230;29;20446;-80
2022/12/31 03:55:52;;;;;;;1.77;0.73;;;;;;;10.85;95.92;100202.66;4971850;29;20408;-80
2022/12/31 03:58:21;;;;;;;2.00;1.33;;;;;;;10.80;95.98;100201.66;4970193;29;20450;-79
2022/12/31 04:00:50;;;;;;;1.10;0.77;;;;;;;10.74;96.50;100189.88;4954387;29;20426;-80
2022/12/31 04:03:19;;;;;;;1.83;0.90;;;;;;;10.87;96.21;100189.75;4953518;29;20620;-80
2022/12/31 04:05:54;;;;;;;1.17;0.70;;;;;;;10.85;95.74;100199.94;4970051;29;20546;-80
2022/12/31 04:08:24;;;;;;;1.57;0.80;;;;;;;10.88;95.61;100190.59;4968538;29;20422;-79
2022/12/31 04:10:53;;;;;;;1.30;0.70;;;;;;;10.94;95.82;100200.50;4968872;29;20438;-80
2022/12/31 04:13:22;;;;;;;0.90;0.60;;;;;;;10.85;96.50;100202.66;4968881;29;20467;-80
2022/12/31 04:15:51;;;;;;;1.00;0.60;;;;;;;10.80;96.86;100204.38;4968862;29;20727;-78
2022/12/31 04:18:20;;;;;;;1.40;0.60;;;;;;;11.05;95.72;100207.91;4951683;29;20446;-79
2022/12/31 04:20:49;;;;;;;1.40;0.67;;;;;;;11.05;96.00;100207.06;4970030;29;20399;-80
2022/12/31 04:23:20;;;;;;;0.97;0.60;;;;;;;11.17;95.31;100208.84;4969267;28;20448;-79
2022/12/31 04:25:49;;;;;;;2.07;1.00;;;;;;;11.15;95.12;100207.41;4969722;29;20459;-80
2022/12/31 04:28:18;;;;;;;1.10;0.80;;;;;;;11.33;94.17;100200.13;4969882;29;20414;-80
2022/12/31 04:30:47;;;;;;;3.00;0.83;;;;;;;11.22;95.32;100208.19;4952847;29;20435;-78
2022/12/31 04:33:16;;;;;;;1.20;0.60;;;;;;;11.23;95.67;100215.28;4955277;29;20491;-80
2022/12/31 04:35:45;;;;;;;1.30;0.80;;;;;;;11.32;95.40;100219.34;4975815;23;20466;-78
2022/12/31 04:38:14;;;;;;;1.20;0.70;;;;;;;11.32;95.15;100220.19;4948261;29;20509;-76
2022/12/31 04:43:28;;;;;;;1.40;0.90;;;;;;;11.40;95.09;100202.78;4975630;28;20494;-76
2022/12/31 04:45:57;;;;;;;0.90;0.60;;;;;;;11.48;94.60;100201.66;4976164;28;20458;-77
2022/12/31 04:48:26;;;;;;;0.90;0.60;;;;;;;11.40;95.69;100199.25;4975783;28;20471;-77
2022/12/31 04:50:55;;;;;;;0.90;0.60;;;;;;;11.39;95.65;100190.28;4975102;28;20467;-76
2022/12/31 04:53:24;;;;;;;1.10;0.60;;;;;;;11.29;96.56;100187.25;4959982;28;20470;-77
2022/12/31 04:55:55;;;;;;;1.00;0.60;;;;;;;11.35;96.44;100159.28;4958528;29;20816;-79
2022/12/31 04:58:24;;;;;;;1.13;0.70;;;;;;;11.34;96.42;100163.03;4961721;28;21123;-76
2022/12/31 05:00:54;;;;;;;0.90;0.60;;;;;;;11.52;95.85;100170.38;4956580;28;20469;-76
2022/12/31 05:03:25;;;;;;;1.00;0.50;;;;;;;11.43;95.80;100161.69;4962608;28;20449;-77
2022/12/31 05:06:00;;;;;;;1.13;0.57;;;;;;;11.43;96.34;100160.84;4978610;28;20425;-77
2022/12/31 05:08:30;;;;;;;0.90;0.60;;;;;;;11.51;95.80;100157.88;4959914;28;20456;-78
2022/12/31 05:11:00;;;;;;;1.20;0.70;;;;;;;11.51;95.71;100158.69;4945108;28;20418;-77
2022/12/31 05:13:30;;;;;;;2.30;0.80;;;;;;;11.59;95.37;100144.00;4961643;28;20446;-76
2022/12/31 05:16:01;;;;;;;1.30;0.70;;;;;;;11.57;95.81;100156.97;4965358;28;20839;-77
2022/12/31 05:18:31;;;;;;;1.40;0.70;;;;;;;11.66;95.25;100159.16;4966305;28;20827;-77
2022/12/31 05:21:00;;;;;;;1.73;0.60;;;;;;;11.78;94.63;100164.66;4966269;28;20409;-76
2022/12/31 05:23:29;;;;;;;1.00;0.60;;;;;;;11.67;95.41;100168.91;4947191;29;20422;-78
2022/12/31 05:26:00;;;;;;;1.07;0.60;;;;;;;11.75;95.87;100160.53;4956129;28;20456;-78
2022/12/31 05:28:29;;;;;;;0.90;0.60;;;;;;;11.77;95.59;100163.81;4969628;28;20435;-79
2022/12/31 05:30:59;;;;;;;0.93;0.60;;;;;;;11.87;94.89;100167.88;4975807;28;20423;-77
2022/12/31 05:33:28;;;;;;;1.30;0.73;;;;;;;11.82;96.41;100170.44;4984494;28;20433;-76
2022/12/31 05:35:57;;;;;;;0.90;0.60;;;;;;;11.76;98.25;100169.50;4980767;28;20452;-76
2022/12/31 05:38:26;;;;;;;1.97;1.00;;;;;;;11.69;100.00;100177.66;4980764;28;20394;-76
2022/12/31 05:41:06;;;;;;;1.10;0.60;;;;;;;11.69;100.00;100176.81;4988621;28;20458;-77
2022/12/31 05:43:36;;;;;;;1.37;0.80;;;;;;;11.56;100.00;100172.41;4967563;28;20428;-76
2022/12/31 05:46:05;;;;;;;1.20;0.67;;;;;;;11.49;100.00;100149.97;4972989;28;20460;-77
2022/12/31 05:48:34;;;;;;;1.17;0.80;;;;;;;11.36;100.00;100144.69;4956465;28;20429;-77
2022/12/31 05:51:03;;;;;;;1.50;0.80;;;;;;;11.37;100.00;100134.69;4970747;28;20427;-78
2022/12/31 05:53:33;;;;;;;1.90;0.83;;;;;;;11.40;100.00;100139.66;4951653;29;20520;-78
2022/12/31 05:56:03;;;;;;;1.50;0.90;;;;;;;11.45;100.00;100126.25;4966704;28;20437;-77
2022/12/31 05:58:32;;;;;;;1.20;0.90;;;;;;;11.47;100.00;100124.16;4969924;28;20440;-77
2022/12/31 06:01:01;;;;;;;1.40;0.97;;;;;;;11.48;100.00;100126.63;4966204;28;20454;-76
2022/12/31 06:03:32;;;;;;;1.10;0.90;;;;;;;11.43;100.00;100123.75;4965521;28;20403;-75
2022/12/31 06:06:02;;;;;;;1.33;0.80;;;;;;;11.49;100.00;100109.31;4960349;28;20876;-77
2022/12/31 06:08:31;;;;;;;1.47;0.80;;;;;;;11.44;100.00;100102.94;4939284;29;20940;-76
2022/12/31 06:11:00;;;;;;;1.97;1.10;;;;;;;11.50;100.00;100097.44;4938877;29;20464;-77
2022/12/31 06:13:30;;;;;;;1.20;0.90;;;;;;;11.50;100.00;100100.16;4953998;28;20423;-79
2022/12/31 06:16:04;;;;;;;1.23;0.83;;;;;;;11.60;100.00;100086.88;4954156;28;20514;-78
2022/12/31 06:18:33;;;;;;;1.43;0.70;;;;;;;11.62;100.00;100084.75;4964381;28;20458;-79
2022/12/31 06:21:04;;;;;;;1.73;0.90;;;;;;;11.59;100.00;100093.34;4944539;29;20432;-76
2022/12/31 06:23:33;;;;;;;1.20;0.80;;;;;;;11.54;100.00;100082.38;4961634;28;20489;-75
2022/12/31 06:26:02;;;;;;;1.60;0.80;;;;;;;11.59;100.00;100085.22;4958065;28;20495;-76
2022/12/31 06:28:33;;;;;;;1.33;0.90;;;;;;;11.58;100.00;100080.03;4959107;29;20475;-78
2022/12/31 06:31:02;;;;;;;1.50;1.07;;;;;;;11.54;100.00;100066.13;4941480;29;20434;-77
2022/12/31 06:33:32;;;;;;;1.50;1.20;;;;;;;11.76;100.00;100075.44;4970255;28;20480;-79
2022/12/31 06:36:03;;;;;;;2.00;1.63;;;;;;;11.76;100.00;100067.28;4965642;28;21019;-76
2022/12/31 06:38:34;;;;;;;1.10;0.70;;;;;;;11.82;100.00;100078.28;4954731;28;20441;-76
2022/12/31 06:41:04;;;;;;;1.37;0.80;;;;;;;11.99;100.00;100090.13;4963178;28;21271;-79
2022/12/31 06:43:35;;;;;;;1.10;0.60;;;;;;;12.05;100.00;100090.03;4954153;29;20447;-78
2022/12/31 06:46:06;;;;;;;1.80;1.10;;;;;;;12.09;100.00;100090.41;4964188;28;20446;-78
2022/12/31 06:48:35;;;;;;;1.00;0.70;;;;;;;12.09;100.00;100090.41;4961558;28;20915;-78
2022/12/31 06:51:05;;;;;;;1.00;0.70;;;;;;;12.15;100.00;100092.22;4963564;28;20503;-79
2022/12/31 06:53:41;;;;;;;2.13;0.60;;;;;;;12.23;100.00;100074.75;4967951;28;20516;-77
2022/12/31 06:56:15;;;;;;;1.20;0.73;;;;;;;12.33;100.00;100086.69;4970540;28;20467;-77
2022/12/31 06:58:46;;;;;;;2.33;0.77;;;;;;;12.39;100.00;100074.09;4966748;28;20482;-77
2022/12/31 07:01:43;;;;;;;0.90;0.60;;;;;;;12.31;100.00;100083.38;4980462;28;20792;-79
2022/12/31 07:04:38;;;;;;;1.23;0.80;;;;;;;12.48;100.00;100073.50;4959047;29;20411;-78
2022/12/31 07:07:14;;;;;;;1.10;0.60;;;;;;;12.49;100.00;100074.34;4966024;28;20438;-77
2022/12/31 07:09:53;;;;;;;2.00;1.33;;;;;;;12.60;100.00;100058.06;4959174;28;20530;-78
2022/12/31 07:12:43;;;;;;;0.97;0.70;;;;;;;12.67;100.00;100065.25;4952309;29;20457;-78
2022/12/31 07:15:19;;;;;;;1.10;0.63;;;;;;;12.79;100.00;100076.94;4966652;28;20504;-78
2022/12/31 07:17:57;;;;;;;2.60;0.70;;;;;;;12.80;99.41;100046.84;4982113;28;20441;-77
2022/12/31 07:20:27;;;;;;;0.90;0.60;;;;;;;12.94;98.56;100056.38;4980082;28;20515;-76
2022/12/31 07:22:56;;;;;;;0.90;0.57;;;;;;;13.05;97.35;100062.88;4992489;28;20431;-77
2022/12/31 07:25:26;;;;;;;1.10;0.60;;;;;;;13.16;96.40;100059.34;4975968;29;20450;-77
2022/12/31 07:28:13;;;;;;;1.53;0.80;;;;;;;13.21;96.20;100056.75;4985619;28;20402;-78
2022/12/31 07:30:54;;;;;;;1.00;0.53;;;;;;;13.27;95.55;100049.50;4968805;28;20428;-77
2022/12/31 07:33:46;;;;;;;1.30;0.80;;;;;;;13.35;94.88;100062.72;4968963;28;20430;-79
2022/12/31 07:36:27;;;;;;;2.53;0.80;;;;;;;13.38;94.83;100073.94;4967117;28;20477;-79
2022/12/31 07:39:05;;;;;;;1.17;0.83;;;;;;;13.47;93.88;100067.06;4973674;28;20409;-77
2022/12/31 07:41:48;;;;;;;1.00;0.60;;;;;;;13.54;93.31;100057.94;4987010;28;20385;-77
2022/12/31 07:44:29;;;;;;;1.63;0.70;;;;;;;13.59;93.14;100068.91;4976353;28;20407;-77
2022/12/31 07:47:01;;;;;;;0.80;0.50;;;;;;;13.58;93.28;100068.09;4975353;28;20443;-78
2022/12/31 07:49:33;;;;;;;1.00;0.67;;;;;;;13.78;91.76;100064.94;4974383;28;20427;-77
2022/12/31 07:52:03;;;;;;;1.23;0.80;;;;;;;13.80;91.75;100076.38;4953571;29;20474;-77
2022/12/31 07:54:32;;;;;;;1.03;0.57;;;;;;;13.74;92.04;100082.81;4983882;28;20524;-77
2022/12/31 07:57:01;;;;;;;1.47;0.50;;;;;;;13.86;91.29;100089.03;4978609;28;20413;-78
2022/12/31 07:59:45;;;;;;;1.13;0.70;;;;;;;13.85;91.29;100096.34;4970020;28;20422;-78
2022/12/31 08:02:26;;;;;;;1.10;0.60;;;;;;;13.91;90.73;100097.28;4972770;28;20526;-78
2022/12/31 08:05:06;;;;;;;1.57;0.73;;;;;;;13.94;90.86;100094.88;4960334;28;20462;-78
2022/12/31 08:07:44;;;;;;;1.37;1.00;;;;;;;13.99;90.75;100102.31;4959205;29;20466;-78
2022/12/31 08:10:19;;;;;;;1.00;0.70;;;;;;;13.99;89.91;100091.44;4961432;28;20510;-78
2022/12/31 08:12:50;;;;;;;1.57;0.70;;;;;;;14.10;89.86;100103.34;4968155;28;20398;-78
2022/12/31 08:15:26;;;;;;;0.90;0.60;;;;;;;14.19;89.49;100110.03;4975271;28;20458;-78
2022/12/31 08:18:00;;;;;;;1.00;0.60;;;;;;;14.19;88.92;100108.13;4971231;28;20411;-78
2022/12/31 08:20:32;;;;;;;1.53;0.70;;;;;;;14.24;88.43;100099.22;4964457;28;20462;-78
2022/12/31 08:23:21;;;;;;;1.10;0.70;;;;;;;14.22;88.74;100095.94;4970145;29;20436;-77
2022/12/31 08:26:10;;;;;;;1.20;0.83;;;;;;;14.33;88.27;100104.03;4965595;28;20445;-77
2022/12/31 08:28:54;;;;;;;1.57;0.80;;;;;;;14.41;87.94;100104.75;4978404;28;20438;-76
2022/12/31 08:31:29;;;;;;;1.50;0.90;;;;;;;14.38;87.79;100102.53;4966740;29;20491;-77
2022/12/31 08:34:12;;;;;;;1.97;1.17;;;;;;;14.39;87.46;100101.44;4975615;28;20431;-76
2022/12/31 08:36:50;;;;;;;1.33;0.80;;;;;;;14.50;87.00;100108.72;4983388;28;20458;-77
2022/12/31 08:39:31;;;;;;;1.10;0.80;;;;;;;14.53;87.12;100100.88;4993277;28;20458;-76
2022/12/31 08:42:04;;;;;;;1.30;0.80;;;;;;;14.59;86.78;100107.22;4985433;28;20523;-76
2022/12/31 08:44:44;;;;;;;2.40;0.70;;;;;;;14.67;86.31;100114.97;4978205;28;20424;-79
2022/12/31 08:47:33;;;;;;;1.10;0.70;;;;;;;14.64;86.50;100099.13;4981783;28;20466;-78
2022/12/31 08:50:15;;;;;;;1.23;0.73;;;;;;;14.82;85.30;100109.75;4957751;29;20424;-77
2022/12/31 08:52:44;;;;;;;2.60;1.10;;;;;;;14.91;85.29;100111.00;4967478;29;20430;-77
2022/12/31 08:55:16;;;;;;;1.17;0.70;;;;;;;14.99;84.43;100118.75;4967862;28;20472;-77
2022/12/31 08:57:55;;;;;;;5.43;1.10;;;;;;;15.16;83.60;100119.53;4989453;28;20475;-76
2022/12/31 09:00:26;;;;;;;1.73;0.80;;;;;;;15.19;83.27;100118.22;4984853;28;20442;-77
2022/12/31 09:03:15;;;;;;;1.73;0.90;;;;;;;15.14;83.14;100121.72;4988003;28;20422;-76
2022/12/31 09:05:57;;;;;;;2.37;1.13;;;;;;;15.13;83.13;100116.50;4974819;28;20414;-77
2022/12/31 09:08:38;;;;;;;1.10;0.70;;;;;;;15.10;83.19;100117.03;4962032;29;20494;-78
2022/12/31 09:11:13;;;;;;;5.13;1.00;;;;;;;15.11;83.17;100126.81;4964879;28;20479;-78
2022/12/31 09:14:15;;;;;;;1.43;1.33;;;;;;;15.12;83.30;100115.69;4957221;28;20455;-78
2022/12/31 09:16:55;;;;;;;1.80;0.97;;;;;;;15.24;82.88;100110.13;4966184;28;20472;-76
2022/12/31 09:19:24;;;;;;;1.80;1.10;;;;;;;15.19;82.81;100124.50;4979084;28;21024;-77
2022/12/31 09:21:55;;;;;;;1.10;0.70;;;;;;;15.28;82.54;100138.53;4973444;28;20439;-77
2022/12/31 09:24:25;;;;;;;2.50;1.10;;;;;;;15.37;81.83;100122.56;4956557;29;20499;-76
2022/12/31 09:27:04;;;;;;;1.60;1.10;;;;;;;15.35;82.10;100111.91;4979269;28;20451;-77
2022/12/31 09:29:44;;;;;;;1.97;1.30;;;;;;;15.44;81.66;100115.84;4968228;29;21177;-79
2022/12/31 09:32:25;;;;;;;1.97;1.03;;;;;;;15.43;81.76;100107.94;4976176;28;20409;-77
2022/12/31 09:34:57;;;;;;;1.70;1.13;;;;;;;15.49;81.26;100110.44;4957715;28;20506;-79
2022/12/31 09:37:42;;;;;;;1.53;0.90;;;;;;;15.65;80.59;100122.41;4978182;28;20441;-77
2022/12/31 09:40:40;;;;;;;1.40;0.80;;;;;;;15.80;80.14;100124.50;4974151;28;20495;-77
2022/12/31 09:43:41;;;;;;;1.67;0.80;;;;;;;15.78;80.13;100111.09;4974124;29;20427;-77
2022/12/31 09:46:36;;;;;;;1.63;1.10;;;;;;;15.80;80.04;100108.13;4973943;29;20516;-79
2022/12/31 09:49:42;;;;;;;4.37;3.33;;;;;;;15.94;79.57;100115.66;4949198;29;20494;-77
2022/12/31 09:52:22;;;;;;;3.07;1.87;;;;;;;15.97;79.54;100114.34;4962592;28;20426;-76
2022/12/31 09:55:15;;;;;;;2.33;1.40;;;;;;;16.01;79.24;100127.22;4972490;28;20427;-77
2022/12/31 09:57:58;;;;;;;2.17;1.20;;;;;;;16.05;78.79;100120.16;4982319;28;20476;-76
2022/12/31 10:00:39;;;;;;;1.70;0.93;;;;;;;16.11;78.70;100117.50;4966636;28;20421;-77
2022/12/31 10:03:40;;;;;;;2.00;1.50;;;;;;;16.13;78.75;100123.50;4971644;28;20467;-76
2022/12/31 10:06:28;;;;;;;3.30;1.47;;;;;;;16.11;78.47;100137.41;4927797;29;20656;-76
2022/12/31 10:09:19;;;;;;;3.13;1.30;;;;;;;16.21;78.23;100136.69;4953836;28;20519;-77
2022/12/31 10:12:14;;;;;;;2.50;1.40;;;;;;;16.16;79.03;100133.91;4955288;28;20423;-79
2022/12/31 10:14:56;;;;;;;3.73;1.50;;;;;;;16.18;78.72;100146.22;4957930;28;20422;-78
2022/12/31 10:17:40;;;;;;;3.23;1.23;;;;;;;16.19;79.04;100149.78;4949903;28;20476;-78
2022/12/31 10:20:30;;;;;;;2.40;1.57;;;;;;;16.16;79.13;100150.28;4960055;28;20681;-79
2022/12/31 10:23:30;;;;;;;1.30;1.00;;;;;;;16.20;79.62;100170.53;4961760;28;20405;-80
2022/12/31 10:26:29;;;;;;;1.73;1.30;;;;;;;16.12;80.78;100171.00;4966697;28;20439;-78
2022/12/31 10:29:10;;;;;;;5.97;1.20;;;;;;;16.03;81.27;100167.88;4977309;28;20442;-78
2022/12/31 10:31:45;;;;;;;1.20;0.80;;;;;;;15.96;83.12;100178.19;4954091;28;20418;-78
2022/12/31 10:34:21;;;;;;;2.00;1.20;;;;;;;15.90;84.31;100182.75;4971957;28;20984;-79
2022/12/31 10:36:57;;;;;;;3.67;2.17;;;;;;;15.83;85.64;100190.28;4990380;23;20490;-83
2022/12/31 10:39:44;;;;;;;5.60;1.90;;;;;;;15.66;88.05;100200.44;4962152;28;20454;-79
2022/12/31 10:42:50;;;;;;;1.73;1.03;;;;;;;15.68;88.86;100198.28;4976295;28;20432;-82
2022/12/31 10:45:49;;;;;;;2.67;1.40;;;;;;;15.64;89.75;100197.13;4955877;28;20515;-80
2022/12/31 10:49:04;;;;;;;1.20;0.70;;;;;;;15.70;89.56;100196.13;4935727;28;20433;-80
2022/12/31 10:52:10;;;;;;;3.07;1.23;;;;;;;15.70;89.78;100207.03;4993136;28;20422;-82
2022/12/31 10:55:19;;;;;;;2.37;1.37;;;;;;;15.71;90.05;100207.84;4999612;28;20404;-80
2022/12/31 10:58:15;;;;;;;2.00;1.10;;;;;;;15.61;91.63;100208.53;4992411;28;20497;-79
2022/12/31 11:01:01;;;;;;;1.50;1.10;;;;;;;15.43;93.07;100206.06;4998062;28;20447;-80
2022/12/31 11:03:59;;;;;;;3.13;1.03;;;;;;;15.37;94.19;100210.63;4979215;28;20437;-80
2022/12/31 11:07:12;;;;;;;2.87;1.47;;;;;;;15.41;94.54;100221.84;4945898;28;20516;-79
2022/12/31 11:10:16;;;;;;;1.40;0.90;;;;;;;15.42;94.58;100221.59;4968751;28;20454;-80
2022/12/31 11:13:21;;;;;;;1.73;1.17;;;;;;;15.50;94.32;100228.53;4976618;28;20441;-81
2022/12/31 11:16:19;;;;;;;1.77;1.13;;;;;;;15.40;95.13;100222.91;4973070;28;20430;-79
2022/12/31 11:18:56;;;;;;;3.77;1.40;;;;;;;15.41;94.64;100227.31;4980586;28;20446;-79
2022/12/31 11:22:09;;;;;;;4.80;2.60;;;;;;;15.34;95.11;100238.41;4981122;28;20779;-81
2022/12/31 11:24:53;;;;;;;1.60;0.87;;;;;;;15.31;94.89;100229.88;4975236;28;20421;-80
2022/12/31 11:27:42;;;;;;;2.23;1.20;;;;;;;15.32;95.23;100226.06;4976921;28;20458;-79
2022/12/31 11:30:25;;;;;;;2.43;1.40;;;;;;;15.38;94.36;100236.00;4971959;28;20490;-80
2022/12/31 11:33:11;;;;;;;1.67;1.17;;;;;;;15.23;94.75;100222.94;4981153;28;20764;-79
2022/12/31 11:36:00;;;;;;;2.00;1.20;;;;;;;15.16;95.42;100212.19;4978048;28;20442;-79
2022/12/31 11:38:33;;;;;;;1.70;1.40;;;;;;;15.56;93.39;100200.28;4962379;28;20494;-79
2022/12/31 11:41:08;;;;;;;2.03;1.33;;;;;;;15.48;93.41;100190.63;4982335;28;20922;-80
2022/12/31 11:43:46;;;;;;;5.07;1.80;;;;;;;15.52;93.32;100180.06;4964189;28;20438;-79
2022/12/31 11:46:58;;;;;;;2.97;1.83;;;;;;;15.82;91.67;100180.47;4974954;28;20971;-81
2022/12/31 11:49:59;;;;;;;3.27;2.00;;;;;;;15.96;89.76;100184.47;4956855;28;20407;-80
2022/12/31 11:52:54;;;;;;;3.73;2.53;;;;;;;16.15;88.72;100170.47;4982407;28;20483;-80
2022/12/31 11:55:45;;;;;;;3.60;1.67;;;;;;;16.24;87.52;100185.31;4977141;28;20489;-80
2022/12/31 11:58:16;;;;;;;2.30;1.53;;;;;;;16.36;86.72;100172.34;4973920;28;20480;-80
2022/12/31 12:00:54;;;;;;;2.43;1.80;;;;;;;16.45;85.37;100179.00;4978204;28;20793;-79
2022/12/31 12:03:27;;;;;;;3.40;1.90;;;;;;;16.68;83.83;100180.59;4973382;28;20707;-80
2022/12/31 12:05:58;;;;;;;5.07;2.03;;;;;;;16.63;83.08;100175.91;4974077;28;20454;-80
2022/12/31 12:08:31;;;;;;;2.30;1.30;;;;;;;16.64;82.91;100174.84;4978978;28;20430;-79
2022/12/31 12:11:06;;;;;;;2.50;1.87;;;;;;;16.62;81.81;100177.00;4977668;28;20429;-80
2022/12/31 12:13:35;;;;;;;2.73;1.20;;;;;;;16.76;79.56;100170.03;4975617;28;20409;-80
2022/12/31 12:16:08;;;;;;;2.07;1.67;;;;;;;16.80;79.17;100171.13;4975993;28;20430;-78
2022/12/31 12:18:43;;;;;;;4.30;1.83;;;;;;;16.79;78.56;100166.78;4971296;28;20453;-81
2022/12/31 12:21:17;;;;;;;4.23;2.90;;;;;;;16.97;77.09;100172.94;4975347;28;20430;-79